Time;durP1;ratioP1;P1;durP2;ratioP2;P2;SDS_P1;SDS_P2;PMS_P1;PMS_P2;Temp;Humidity;BMP_temperature;BMP_pressure;BME280_temperature;BME280_humidity;BME280_pressure;Samples;Min_cycle;Max_cycle;Signal;HPM_P1;HPM_P2
2020/12/31 00:00:18;;;;;;;251.32;126.47;;;;;;;2.89;77.84;96268.72;1775526;78;25788;-82
2020/12/31 00:02:48;;;;;;;252.90;126.72;;;;;;;2.82;77.88;96271.81;1806233;78;25790;-82
2020/12/31 00:05:15;;;;;;;262.27;125.82;;;;;;;2.77;77.89;96274.75;1775787;78;25851;-82
2020/12/31 00:07:42;;;;;;;261.25;130.22;;;;;;;2.71;77.93;96275.50;1808100;78;25860;-82
2020/12/31 00:10:09;;;;;;;288.35;147.85;;;;;;;2.69;78.05;96277.52;1794583;78;27500;-82
2020/12/31 00:12:37;;;;;;;280.73;137.52;;;;;;;2.73;78.17;96276.14;1784701;78;26126;-82
2020/12/31 00:15:05;;;;;;;275.68;135.25;;;;;;;2.77;78.17;96278.75;1792607;78;25666;-82
2020/12/31 00:17:33;;;;;;;271.52;134.75;;;;;;;2.81;78.16;96273.33;1792676;78;25808;-82
2020/12/31 00:20:01;;;;;;;271.73;134.72;;;;;;;2.83;78.11;96280.13;1792700;78;25711;-82
2020/12/31 00:22:28;;;;;;;273.95;134.97;;;;;;;2.85;78.15;96285.28;1792522;78;27528;-82
2020/12/31 00:24:56;;;;;;;257.90;129.82;;;;;;;2.87;78.17;96289.91;1805358;78;26570;-82
2020/12/31 00:27:23;;;;;;;248.60;130.45;;;;;;;2.90;78.20;96286.34;1798367;78;25717;-82
2020/12/31 00:29:50;;;;;;;256.70;127.15;;;;;;;2.88;78.05;96287.06;1792563;78;25653;-82
2020/12/31 00:32:18;;;;;;;260.73;129.68;;;;;;;2.90;78.08;96285.51;1796521;78;25561;-82
2020/12/31 00:34:45;;;;;;;247.88;123.97;;;;;;;2.92;78.11;96296.81;1817705;78;27464;-82
2020/12/31 00:37:12;;;;;;;254.97;127.53;;;;;;;2.90;78.03;96292.17;1804703;78;26173;-82
2020/12/31 00:39:40;;;;;;;251.90;129.12;;;;;;;2.85;77.98;96286.10;1792649;78;25846;-82
2020/12/31 00:42:07;;;;;;;259.98;129.40;;;;;;;2.84;78.05;96286.29;1794347;78;26436;-82
2020/12/31 00:44:35;;;;;;;270.95;132.07;;;;;;;2.83;78.09;96289.46;1800012;78;25800;-82
2020/12/31 00:47:02;;;;;;;249.67;127.95;;;;;;;2.78;78.03;96292.36;1802964;78;27537;-82
2020/12/31 00:49:30;;;;;;;254.57;132.52;;;;;;;2.74;78.07;96291.94;1813099;78;25791;-82
2020/12/31 00:51:57;;;;;;;254.38;126.47;;;;;;;2.70;78.16;96289.83;1812132;78;25882;-82
2020/12/31 00:54:24;;;;;;;252.20;126.35;;;;;;;2.72;78.29;96286.47;1792349;78;25797;-82
2020/12/31 00:56:52;;;;;;;263.85;134.32;;;;;;;2.78;78.39;96297.69;1792332;78;25870;-82
2020/12/31 00:59:19;;;;;;;264.35;135.63;;;;;;;2.83;78.41;96296.63;1817077;78;27468;-82
2020/12/31 01:01:46;;;;;;;264.57;137.03;;;;;;;2.85;78.40;96298.60;1798512;78;26381;-82
2020/12/31 01:04:14;;;;;;;266.52;138.82;;;;;;;2.77;78.27;96308.06;1816921;78;25718;-82
2020/12/31 01:06:41;;;;;;;272.40;137.30;;;;;;;2.78;78.36;96315.02;1799753;78;26155;-82
2020/12/31 01:09:09;;;;;;;251.12;133.25;;;;;;;2.81;78.37;96322.64;1815812;78;25727;-83
2020/12/31 01:11:38;;;;;;;263.87;131.80;;;;;;;2.84;78.44;96322.27;1805788;78;27580;-82
2020/12/31 01:14:07;;;;;;;246.15;131.20;;;;;;;2.88;78.44;96317.72;1796266;78;26352;-82
2020/12/31 01:16:35;;;;;;;255.72;130.45;;;;;;;2.92;78.46;96320.80;1801554;78;26118;-82
2020/12/31 01:19:04;;;;;;;251.32;127.30;;;;;;;2.93;78.40;96323.79;1812763;78;26113;-81
2020/12/31 01:21:32;;;;;;;245.95;125.38;;;;;;;2.90;78.27;96314.83;1801929;78;25784;-82
2020/12/31 01:23:59;;;;;;;246.57;123.15;;;;;;;2.90;78.28;96314.83;1806213;78;27475;-82
2020/12/31 01:26:33;;;;;;;232.35;118.93;;;;;;;2.89;78.28;96310.04;1815067;78;25777;-83
2020/12/31 01:29:02;;;;;;;225.53;113.37;;;;;;;2.83;78.24;96316.62;1791761;78;26146;-82
2020/12/31 01:31:29;;;;;;;220.30;118.47;;;;;;;2.81;78.32;96321.30;1801343;78;26150;-82
2020/12/31 01:33:57;;;;;;;241.33;123.78;;;;;;;2.81;78.39;96323.47;1810921;78;25772;-82
2020/12/31 01:36:24;;;;;;;242.90;125.65;;;;;;;2.85;78.43;96317.26;1813800;78;27483;-82
2020/12/31 01:38:52;;;;;;;229.82;120.47;;;;;;;2.82;78.39;96318.45;1803074;78;26139;-82
2020/12/31 01:41:24;;;;;;;215.47;114.42;;;;;;;2.76;78.28;96315.73;1799139;78;25563;-82
2020/12/31 01:44:10;;;;;;;222.80;115.40;;;;;;;2.75;78.30;96311.42;1794257;78;25753;-82
2020/12/31 01:46:40;;;;;;;212.57;109.30;;;;;;;2.75;78.25;96307.42;1792468;78;25829;-82
2020/12/31 01:49:10;;;;;;;214.90;108.97;;;;;;;2.73;78.22;96302.78;1802095;78;27586;-82
2020/12/31 01:51:38;;;;;;;209.00;110.03;;;;;;;2.67;78.18;96308.85;1792586;78;26058;-82
2020/12/31 01:54:05;;;;;;;231.28;116.15;;;;;;;2.56;78.19;96315.50;1794742;78;25796;-82
2020/12/31 01:56:35;;;;;;;239.85;122.05;;;;;;;2.52;78.29;96324.91;1806111;78;26567;-82
2020/12/31 01:59:04;;;;;;;241.10;118.80;;;;;;;2.52;78.44;96339.55;1806012;78;25737;-82
2020/12/31 02:01:31;;;;;;;223.50;113.55;;;;;;;2.58;78.61;96333.46;1800419;78;28427;-82
2020/12/31 02:04:00;;;;;;;205.67;105.80;;;;;;;2.48;78.43;96323.11;1792847;78;26138;-83
2020/12/31 02:06:29;;;;;;;208.70;104.97;;;;;;;2.45;78.45;96330.14;1801342;78;25743;-82
2020/12/31 02:08:57;;;;;;;218.80;110.72;;;;;;;2.47;78.47;96341.44;1801816;78;25763;-82
2020/12/31 02:11:26;;;;;;;242.43;118.62;;;;;;;2.46;78.43;96350.44;1806245;78;26268;-82
2020/12/31 02:13:55;;;;;;;226.95;115.30;;;;;;;2.45;78.52;96351.45;1804578;78;27487;-82
2020/12/31 02:16:28;;;;;;;223.60;114.25;;;;;;;2.43;78.50;96342.81;1817840;77;25753;-82
2020/12/31 02:18:59;;;;;;;225.38;114.65;;;;;;;2.42;78.43;96342.48;1793468;78;25751;-82
2020/12/31 02:21:32;;;;;;;239.78;116.67;;;;;;;2.36;78.38;96347.24;1804416;78;25739;-82
2020/12/31 02:24:03;;;;;;;217.82;112.40;;;;;;;2.34;78.47;96339.94;1809863;78;25806;-82
2020/12/31 02:26:35;;;;;;;212.65;111.00;;;;;;;2.36;78.47;96343.75;1778103;78;27422;-82
2020/12/31 02:29:05;;;;;;;224.10;114.20;;;;;;;2.34;78.43;96349.26;1775892;78;25833;-82
2020/12/31 02:31:33;;;;;;;225.25;115.67;;;;;;;2.36;78.42;96354.41;1805009;78;25724;-82
2020/12/31 02:34:01;;;;;;;226.22;115.60;;;;;;;2.26;78.35;96356.53;1814211;78;25835;-83
2020/12/31 02:36:32;;;;;;;213.45;109.52;;;;;;;2.24;78.50;96353.22;1786076;78;25799;-82
2020/12/31 02:39:03;;;;;;;208.00;105.20;;;;;;;2.25;78.60;96348.22;1784166;78;27584;-82
2020/12/31 02:41:30;;;;;;;200.72;100.92;;;;;;;2.28;78.53;96355.34;1798986;78;25837;-82
2020/12/31 02:43:57;;;;;;;207.60;102.67;;;;;;;2.25;78.45;96346.89;1786690;78;25644;-83
2020/12/31 02:46:25;;;;;;;188.68;98.87;;;;;;;2.17;78.34;96333.98;1786641;78;25748;-83
2020/12/31 02:48:52;;;;;;;193.57;98.60;;;;;;;2.16;78.43;96335.52;1778728;78;25902;-82
2020/12/31 02:51:21;;;;;;;187.57;98.00;;;;;;;2.15;78.45;96332.03;1783238;78;27495;-82
2020/12/31 02:53:48;;;;;;;169.05;90.38;;;;;;;2.14;78.42;96338.87;1783288;78;26341;-83
2020/12/31 02:56:19;;;;;;;190.50;100.20;;;;;;;2.13;78.51;96331.89;1801931;78;25622;-82
2020/12/31 02:58:48;;;;;;;177.53;94.40;;;;;;;2.14;78.58;96330.38;1799684;78;25679;-83
2020/12/31 03:01:17;;;;;;;178.57;96.87;;;;;;;2.18;78.57;96329.48;1780572;78;25743;-82
2020/12/31 03:03:45;;;;;;;182.35;97.05;;;;;;;2.16;78.43;96328.87;1811024;78;28551;-82
2020/12/31 03:06:12;;;;;;;178.97;91.40;;;;;;;2.15;78.39;96325.88;1803097;78;25731;-82
2020/12/31 03:08:41;;;;;;;174.68;92.85;;;;;;;2.18;78.46;96324.16;1781210;78;25696;-82
2020/12/31 03:11:16;;;;;;;174.62;90.97;;;;;;;2.21;78.49;96329.13;1775844;78;26346;-82
2020/12/31 03:13:43;;;;;;;180.57;90.65;;;;;;;2.23;78.47;96332.42;1777894;78;25747;-82
2020/12/31 03:16:10;;;;;;;173.25;89.77;;;;;;;2.24;78.43;96331.42;1797482;78;28389;-81
2020/12/31 03:18:38;;;;;;;167.10;87.05;;;;;;;2.21;78.34;96333.11;1779183;78;25704;-82
2020/12/31 03:21:07;;;;;;;162.20;87.62;;;;;;;2.11;78.28;96332.58;1783642;78;25676;-82
2020/12/31 03:23:34;;;;;;;174.27;90.47;;;;;;;2.07;78.37;96339.27;1786254;78;26496;-82
2020/12/31 03:26:01;;;;;;;180.52;95.07;;;;;;;2.08;78.49;96334.27;1781829;78;25808;-82
2020/12/31 03:28:29;;;;;;;174.07;94.60;;;;;;;2.10;78.55;96338.41;1788500;78;27586;-82
2020/12/31 03:30:56;;;;;;;177.45;93.90;;;;;;;2.12;78.58;96334.23;1812343;78;25739;-82
2020/12/31 03:33:23;;;;;;;164.32;84.72;;;;;;;2.12;78.51;96331.56;1811923;78;25784;-82
2020/12/31 03:35:51;;;;;;;159.07;80.65;;;;;;;2.09;78.43;96329.27;1782062;78;26641;-82
2020/12/31 03:38:21;;;;;;;147.32;79.27;;;;;;;2.07;78.35;96330.78;1792671;78;25813;-82
2020/12/31 03:40:49;;;;;;;147.40;76.77;;;;;;;2.03;78.32;96334.84;1819438;78;27501;-82
2020/12/31 03:43:17;;;;;;;149.32;79.15;;;;;;;2.03;78.35;96328.69;1808166;78;25726;-83
2020/12/31 03:45:44;;;;;;;155.43;82.12;;;;;;;2.06;78.46;96330.45;1808998;78;25752;-82
2020/12/31 03:48:12;;;;;;;158.20;81.72;;;;;;;2.01;78.34;96318.73;1776983;78;25704;-82
2020/12/31 03:50:40;;;;;;;149.10;78.50;;;;;;;1.92;78.33;96315.34;1782699;78;25804;-82
2020/12/31 03:53:08;;;;;;;159.75;86.37;;;;;;;1.84;78.33;96324.73;1785360;78;27501;-82
2020/12/31 03:55:35;;;;;;;168.00;90.10;;;;;;;1.75;78.50;96325.33;1787741;78;26139;-82
2020/12/31 03:58:02;;;;;;;160.67;86.60;;;;;;;1.79;78.70;96334.61;1782427;78;25672;-83
2020/12/31 04:00:30;;;;;;;174.70;87.97;;;;;;;1.83;78.72;96330.23;1785550;78;25697;-82
2020/12/31 04:02:57;;;;;;;166.97;86.60;;;;;;;1.80;78.61;96328.28;1784661;78;25313;-82
2020/12/31 04:05:24;;;;;;;154.65;80.65;;;;;;;1.80;78.57;96326.95;1794986;78;27576;-82
2020/12/31 04:07:52;;;;;;;153.60;79.42;;;;;;;1.78;78.54;96332.95;1775581;78;25803;-82
2020/12/31 04:10:19;;;;;;;137.00;76.60;;;;;;;1.79;78.56;96332.45;1797308;78;25381;-83
2020/12/31 04:12:46;;;;;;;149.07;76.53;;;;;;;1.84;78.61;96337.20;1781117;78;25522;-82
2020/12/31 04:15:14;;;;;;;140.55;76.17;;;;;;;1.88;78.59;96337.17;1800556;78;25758;-82
2020/12/31 04:17:41;;;;;;;142.18;75.50;;;;;;;1.88;78.57;96343.32;1806270;78;27481;-82
2020/12/31 04:20:08;;;;;;;146.18;76.87;;;;;;;1.87;78.49;96335.52;1807004;78;25830;-82
2020/12/31 04:22:36;;;;;;;142.15;75.45;;;;;;;1.81;78.49;96336.56;1818390;78;25761;-82
2020/12/31 04:25:03;;;;;;;140.82;75.42;;;;;;;1.81;78.62;96333.89;1806097;78;25731;-82
2020/12/31 04:27:31;;;;;;;138.57;75.78;;;;;;;1.87;78.74;96331.53;1819525;78;25724;-82
2020/12/31 04:29:58;;;;;;;151.15;76.40;;;;;;;1.92;78.78;96333.97;1806148;78;27497;-82
2020/12/31 04:32:25;;;;;;;139.70;75.35;;;;;;;1.96;78.70;96342.39;1793820;78;25716;-82
2020/12/31 04:34:53;;;;;;;145.57;78.85;;;;;;;1.95;78.60;96338.08;1809204;77;25663;-82
2020/12/31 04:37:20;;;;;;;147.45;76.95;;;;;;;1.97;78.69;96341.39;1822881;78;26471;-82
2020/12/31 04:39:48;;;;;;;165.65;81.90;;;;;;;2.02;78.70;96343.00;1800274;78;25569;-82
2020/12/31 04:42:15;;;;;;;158.63;83.07;;;;;;;1.98;78.58;96348.36;1792618;78;27547;-83
2020/12/31 04:44:44;;;;;;;145.82;78.52;;;;;;;1.95;78.64;96348.72;1792454;78;26245;-83
2020/12/31 04:47:20;;;;;;;148.62;78.20;;;;;;;1.95;78.70;96347.39;1792584;78;25255;-83
2020/12/31 04:49:52;;;;;;;150.72;79.07;;;;;;;1.96;78.73;96351.20;1801374;78;25783;-83
2020/12/31 04:52:20;;;;;;;;;;;;;;;1.95;78.73;96346.06;1795214;78;25300;-83
2020/12/31 04:54:48;;;;;;;154.75;78.83;;;;;;;1.94;78.76;96347.89;1802117;78;27505;-83
2020/12/31 04:57:16;;;;;;;149.85;77.00;;;;;;;1.93;78.82;96346.77;1806493;78;25820;-83
2020/12/31 04:59:43;;;;;;;146.82;76.15;;;;;;;1.94;78.83;96357.20;1800974;78;25688;-82
2020/12/31 05:02:11;;;;;;;142.20;75.52;;;;;;;1.98;78.85;96356.35;1804023;78;26379;-83
2020/12/31 05:04:39;;;;;;;142.30;76.07;;;;;;;1.99;78.86;96353.51;1812437;78;25739;-84
2020/12/31 05:07:08;;;;;;;149.15;75.97;;;;;;;1.98;78.82;96354.52;1815745;78;27487;-83
2020/12/31 05:09:35;;;;;;;156.63;77.70;;;;;;;2.02;78.87;96359.80;1792510;78;25703;-83
2020/12/31 05:12:03;;;;;;;147.90;72.87;;;;;;;2.04;78.89;96358.30;1795425;78;25759;-82
2020/12/31 05:14:37;;;;;;;163.75;76.02;;;;;;;2.05;78.87;96355.95;1815223;77;26474;-86
2020/12/31 05:17:17;;;;;;;174.60;79.22;;;;;;;2.06;78.88;96365.56;1791257;78;25334;-83
2020/12/31 05:19:45;;;;;;;180.22;79.90;;;;;;;2.08;78.93;96366.21;1767836;78;28787;-82
2020/12/31 05:22:16;;;;;;;204.28;89.85;;;;;;;2.11;78.94;96369.84;1767988;78;25697;-83
2020/12/31 05:24:49;;;;;;;214.90;94.70;;;;;;;2.07;78.90;96366.72;1781161;78;25683;-82
2020/12/31 05:27:24;;;;;;;218.10;98.92;;;;;;;2.06;78.95;96366.89;1809033;78;25808;-83
2020/12/31 05:30:06;;;;;;;235.35;106.70;;;;;;;2.08;79.06;96376.86;1781472;78;25362;-82
2020/12/31 05:32:40;;;;;;;230.47;102.78;;;;;;;2.09;79.10;96379.84;1800271;78;27547;-83
2020/12/31 05:35:16;;;;;;;197.43;90.85;;;;;;;2.09;79.18;96377.19;1803851;78;25847;-83
2020/12/31 05:37:44;;;;;;;196.57;82.20;;;;;;;2.12;79.19;96380.81;1800957;78;25669;-83
2020/12/31 05:40:13;;;;;;;195.22;82.00;;;;;;;2.12;79.16;96376.32;1804291;78;25756;-83
2020/12/31 05:42:43;;;;;;;193.13;81.60;;;;;;;2.14;79.13;96373.48;1769828;78;25696;-83
2020/12/31 05:45:24;;;;;;;176.65;77.82;;;;;;;2.13;79.12;96370.49;1767991;78;27493;-83
2020/12/31 05:47:54;;;;;;;176.37;78.95;;;;;;;2.15;79.13;96371.14;1788624;78;25710;-83
2020/12/31 05:50:30;;;;;;;187.03;79.87;;;;;;;2.16;79.17;96370.13;1791505;78;25814;-83
2020/12/31 05:52:57;;;;;;;188.00;83.58;;;;;;;2.17;79.18;96367.80;1774604;78;25894;-82
2020/12/31 05:55:28;;;;;;;191.05;84.58;;;;;;;2.15;79.14;96369.81;1783574;78;26489;-83
2020/12/31 05:57:57;;;;;;;197.22;88.90;;;;;;;2.15;79.22;96369.30;1806189;78;27523;-83
2020/12/31 06:00:30;;;;;;;224.05;92.17;;;;;;;2.17;79.27;96366.46;1812393;78;25745;-83
2020/12/31 06:03:00;;;;;;;229.95;99.83;;;;;;;2.17;79.24;96371.79;1792534;78;25842;-82
2020/12/31 06:05:30;;;;;;;231.43;99.67;;;;;;;2.09;79.16;96377.19;1792569;78;26701;-83
2020/12/31 06:07:59;;;;;;;238.55;104.97;;;;;;;2.06;79.22;96373.05;1811420;77;25699;-83
2020/12/31 06:10:31;;;;;;;235.72;106.22;;;;;;;2.02;79.24;96373.61;1808420;78;27485;-83
2020/12/31 06:13:04;;;;;;;239.12;103.45;;;;;;;1.96;79.33;96370.34;1767757;78;25761;-82
2020/12/31 06:15:37;;;;;;;261.37;112.05;;;;;;;1.96;79.47;96368.50;1820928;78;25726;-82
2020/12/31 06:18:07;;;;;;;242.85;103.30;;;;;;;2.00;79.57;96371.64;1805453;78;25707;-83
2020/12/31 06:20:37;;;;;;;240.12;99.83;;;;;;;1.95;79.51;96378.00;1795442;78;25703;-83
2020/12/31 06:23:09;;;;;;;237.85;100.07;;;;;;;1.95;79.63;96378.00;1805985;78;28435;-84
2020/12/31 06:25:45;;;;;;;236.77;99.92;;;;;;;2.00;79.72;96375.63;1793591;78;26451;-83
2020/12/31 06:28:17;;;;;;;212.17;92.33;;;;;;;2.05;79.74;96381.24;1792487;78;25794;-83
2020/12/31 06:30:54;;;;;;;208.67;89.53;;;;;;;2.06;79.72;96380.20;1802201;78;26372;-83
2020/12/31 06:33:32;;;;;;;197.40;87.22;;;;;;;2.07;79.71;96388.52;1800656;78;25904;-83
2020/12/31 06:36:02;;;;;;;204.93;91.60;;;;;;;2.09;79.74;96385.17;1810948;78;27500;-83
2020/12/31 06:41:41;;;;;;;201.52;91.90;;;;;;;2.11;79.70;96383.98;1860143;76;34737;-82
2020/12/31 06:44:15;;;;;;;177.60;83.60;;;;;;;2.06;79.67;96387.69;1839491;77;25807;-81
2020/12/31 06:46:48;;;;;;;191.05;85.38;;;;;;;2.08;79.68;96386.17;1808698;77;28617;-82
2020/12/31 06:49:17;;;;;;;166.25;80.03;;;;;;;2.10;79.71;96392.15;1816222;77;25694;-82
2020/12/31 06:51:44;;;;;;;174.77;82.22;;;;;;;2.11;79.70;96396.47;1850318;76;25760;-82
2020/12/31 06:54:12;;;;;;;171.93;80.80;;;;;;;2.14;79.66;96393.45;1833134;77;25854;-82
2020/12/31 06:56:49;;;;;;;164.28;81.08;;;;;;;2.15;79.63;96403.09;1814864;77;25721;-83
2020/12/31 06:59:36;;;;;;;174.77;81.65;;;;;;;2.14;79.62;96400.10;1809107;77;26822;-83
2020/12/31 07:02:16;;;;;;;150.93;77.05;;;;;;;2.17;79.64;96404.53;1818703;77;26384;-83
2020/12/31 07:04:44;;;;;;;158.97;78.40;;;;;;;2.17;79.62;96407.73;1818679;77;25721;-83
2020/12/31 07:07:25;;;;;;;159.10;79.65;;;;;;;2.20;79.67;96408.67;1814019;76;26058;-82
2020/12/31 07:10:01;;;;;;;163.90;82.02;;;;;;;2.23;79.63;96404.32;1812476;77;25758;-83
2020/12/31 07:12:34;;;;;;;165.85;79.85;;;;;;;2.23;79.63;96402.98;1818828;77;25923;-83
2020/12/31 07:15:05;;;;;;;154.07;75.72;;;;;;;2.25;79.61;96404.97;1820003;77;25356;-83
2020/12/31 07:17:44;;;;;;;152.10;73.57;;;;;;;2.26;79.63;96402.63;1839758;77;25765;-83
2020/12/31 07:20:19;;;;;;;162.53;74.95;;;;;;;2.30;79.67;96400.40;1818692;77;25865;-83
2020/12/31 07:22:50;;;;;;;157.10;76.17;;;;;;;2.31;79.69;96402.88;1818801;77;25736;-83
2020/12/31 07:25:19;;;;;;;153.55;73.85;;;;;;;2.23;79.59;96400.83;1840849;77;27480;-83
2020/12/31 07:27:48;;;;;;;164.93;76.22;;;;;;;2.17;79.65;96401.88;1808556;77;26279;-83
2020/12/31 07:30:21;;;;;;;156.18;74.30;;;;;;;2.19;79.80;96401.69;1806223;77;25666;-84
2020/12/31 07:33:04;;;;;;;165.20;79.95;;;;;;;2.22;79.88;96409.32;1846249;77;25620;-83
2020/12/31 07:35:43;;;;;;;159.18;71.57;;;;;;;2.24;79.89;96409.97;1838039;77;25730;-83
2020/12/31 07:38:18;;;;;;;154.87;76.92;;;;;;;2.28;79.86;96405.94;1823337;77;26291;-83
2020/12/31 07:40:55;;;;;;;171.20;86.22;;;;;;;2.31;79.82;96405.55;1837092;77;25745;-83
2020/12/31 07:43:29;;;;;;;173.85;81.50;;;;;;;2.32;79.78;96398.38;1807696;77;25893;-83
2020/12/31 07:46:00;;;;;;;177.32;81.82;;;;;;;2.33;79.76;96404.86;1820925;77;25782;-83
2020/12/31 07:48:30;;;;;;;175.50;75.75;;;;;;;2.37;79.76;96407.48;1820941;77;25679;-83
2020/12/31 07:51:05;;;;;;;161.55;73.70;;;;;;;2.38;79.72;96402.48;1814431;77;27476;-83
2020/12/31 07:53:32;;;;;;;129.23;61.63;;;;;;;2.40;79.71;96405.80;1832877;77;25801;-83
2020/12/31 07:56:03;;;;;;;140.00;60.83;;;;;;;2.42;79.68;96415.73;1829670;77;25660;-83
2020/12/31 07:58:34;;;;;;;136.00;60.88;;;;;;;2.44;79.71;96407.05;1825624;77;25821;-83
2020/12/31 08:01:07;;;;;;;138.03;59.50;;;;;;;2.47;79.69;96417.34;1823009;77;26456;-83
2020/12/31 08:03:35;;;;;;;136.10;61.85;;;;;;;2.47;79.61;96412.02;1811331;77;27467;-83
2020/12/31 08:06:07;;;;;;;134.03;61.28;;;;;;;2.47;79.58;96421.34;1830555;77;25812;-83
2020/12/31 08:08:35;;;;;;;135.43;61.35;;;;;;;2.47;79.59;96425.34;1823009;77;25768;-83
2020/12/31 08:11:09;;;;;;;125.92;60.00;;;;;;;2.48;79.63;96427.00;1808601;77;25740;-83
2020/12/31 08:13:37;;;;;;;130.30;61.95;;;;;;;2.48;79.65;96425.67;1818866;77;25756;-83
2020/12/31 08:16:05;;;;;;;147.35;66.17;;;;;;;2.52;79.69;96422.97;1818024;77;27477;-83
2020/12/31 08:18:33;;;;;;;150.57;66.57;;;;;;;2.53;79.67;96423.29;1833976;77;25966;-83
2020/12/31 08:21:07;;;;;;;170.30;71.12;;;;;;;2.49;79.62;96431.31;1804634;77;25851;-83
2020/12/31 08:23:42;;;;;;;172.43;78.50;;;;;;;2.49;79.67;96435.81;1832538;77;25794;-83
2020/12/31 08:26:14;;;;;;;200.53;92.15;;;;;;;2.49;79.71;96442.47;1813179;77;25805;-83
2020/12/31 08:28:44;;;;;;;208.72;91.22;;;;;;;2.47;79.75;96446.66;1818958;77;28511;-83
2020/12/31 08:31:15;;;;;;;194.57;90.30;;;;;;;2.47;79.80;96436.00;1812503;77;25940;-83
2020/12/31 08:33:45;;;;;;;204.15;90.05;;;;;;;2.51;79.81;96437.80;1813114;77;26270;-83
2020/12/31 08:36:28;;;;;;;191.82;90.30;;;;;;;2.52;79.83;96447.44;1832464;77;25743;-82
2020/12/31 08:39:00;;;;;;;185.67;85.47;;;;;;;2.56;79.88;96447.88;1822971;77;25812;-83
2020/12/31 08:41:26;;;;;;;157.52;71.80;;;;;;;2.60;79.89;96447.84;1815768;77;28445;-83
2020/12/31 08:43:54;;;;;;;163.45;71.82;;;;;;;2.63;79.89;96446.15;1813551;77;26130;-83
2020/12/31 08:46:23;;;;;;;162.65;73.47;;;;;;;2.65;79.90;96440.13;1833196;77;25291;-83
2020/12/31 08:48:56;;;;;;;160.32;73.72;;;;;;;2.68;79.88;96440.56;1834218;77;26455;-83
2020/12/31 08:51:31;;;;;;;151.50;72.15;;;;;;;2.71;79.84;96444.70;1817451;77;25751;-83
2020/12/31 08:54:01;;;;;;;147.68;70.22;;;;;;;2.74;79.86;96437.67;1816148;77;27702;-83
2020/12/31 08:56:31;;;;;;;144.50;68.57;;;;;;;2.77;79.81;96443.47;1809010;77;25732;-83
2020/12/31 08:59:09;;;;;;;141.77;68.20;;;;;;;2.80;79.80;96444.91;1828183;77;25695;-83
2020/12/31 09:01:39;;;;;;;162.25;72.47;;;;;;;2.83;79.81;96441.37;1809547;77;25723;-83
2020/12/31 09:04:16;;;;;;;147.72;71.02;;;;;;;2.83;79.74;96445.88;1809504;77;26035;-83
2020/12/31 09:06:46;;;;;;;146.43;68.28;;;;;;;2.85;79.81;96439.86;1813729;77;28371;-83
2020/12/31 09:09:27;;;;;;;128.70;63.65;;;;;;;2.92;79.86;96434.09;1827543;77;25878;-83
2020/12/31 09:12:04;;;;;;;129.55;64.10;;;;;;;3.00;79.85;96430.51;1814781;77;26342;-83
2020/12/31 09:14:35;;;;;;;135.32;65.30;;;;;;;3.06;79.81;96432.41;1813104;77;26137;-83
2020/12/31 09:17:21;;;;;;;127.78;62.90;;;;;;;3.11;79.76;96436.17;1802921;77;26481;-83
2020/12/31 09:19:56;;;;;;;126.38;62.03;;;;;;;3.16;79.74;96431.09;1801089;77;27699;-82
2020/12/31 09:22:24;;;;;;;143.82;70.83;;;;;;;3.22;79.66;96424.19;1809224;77;25746;-83
2020/12/31 09:24:53;;;;;;;165.30;85.70;;;;;;;3.25;79.56;96429.98;1809478;77;25802;-83
2020/12/31 09:27:25;;;;;;;165.07;85.25;;;;;;;3.28;79.47;96430.59;1809497;77;25755;-83
2020/12/31 09:30:01;;;;;;;160.12;81.15;;;;;;;3.21;79.39;96426.02;1809639;77;25675;-83
2020/12/31 09:32:29;;;;;;;162.60;78.30;;;;;;;3.24;79.48;96416.32;1793739;77;27486;-83
2020/12/31 09:34:57;;;;;;;169.75;83.20;;;;;;;3.33;79.49;96410.85;1797436;77;25797;-83
2020/12/31 09:37:24;;;;;;;170.55;83.52;;;;;;;3.30;79.40;96408.05;1802900;77;25675;-82
2020/12/31 09:39:52;;;;;;;185.73;85.05;;;;;;;3.30;79.41;96413.89;1797690;77;26152;-82
2020/12/31 09:42:19;;;;;;;179.82;85.17;;;;;;;3.32;79.45;96411.86;1815638;77;25732;-83
2020/12/31 09:44:46;;;;;;;157.18;78.45;;;;;;;3.37;79.50;96408.12;1807975;77;28540;-82
2020/12/31 09:47:14;;;;;;;156.10;78.65;;;;;;;3.45;79.51;96410.66;1809404;77;25778;-82
2020/12/31 09:49:41;;;;;;;134.60;66.92;;;;;;;3.50;79.48;96405.05;1815235;77;25719;-82
2020/12/31 09:52:09;;;;;;;118.20;60.70;;;;;;;3.53;79.37;96397.18;1848909;77;25393;-82
2020/12/31 09:54:36;;;;;;;113.88;61.10;;;;;;;3.66;79.40;96401.80;1825312;77;25776;-82
2020/12/31 09:57:05;;;;;;;107.95;56.00;;;;;;;3.75;79.29;96393.46;1835777;76;26493;-82
2020/12/31 09:59:33;;;;;;;92.15;51.50;;;;;;;3.84;79.22;96394.99;1815463;77;25951;-82
2020/12/31 10:02:00;;;;;;;90.07;49.93;;;;;;;3.83;79.02;96397.34;1837393;77;25738;-82
2020/12/31 10:04:27;;;;;;;92.67;51.53;;;;;;;3.90;79.04;96397.38;1815509;77;25778;-82
2020/12/31 10:06:55;;;;;;;97.05;53.50;;;;;;;4.04;79.06;96391.12;1838946;77;25690;-82
2020/12/31 10:09:22;;;;;;;95.30;52.45;;;;;;;4.18;78.93;96396.05;1832607;77;28441;-81
2020/12/31 10:11:53;;;;;;;91.67;49.65;;;;;;;4.24;78.74;96397.91;1821222;77;25783;-82
2020/12/31 10:14:19;;;;;;;90.62;49.50;;;;;;;4.26;78.60;96399.88;1815050;77;25814;-82
2020/12/31 10:16:46;;;;;;;93.00;49.00;;;;;;;4.21;78.34;96388.98;1833764;77;25783;-82
2020/12/31 10:19:14;;;;;;;93.65;47.98;;;;;;;4.17;78.30;96394.39;1840752;77;25767;-82
2020/12/31 10:21:42;;;;;;;89.55;45.85;;;;;;;4.18;78.31;96389.36;1834466;77;27479;-81
2020/12/31 10:24:09;;;;;;;81.70;43.80;;;;;;;4.27;78.35;96388.18;1816839;77;25378;-82
2020/12/31 10:26:36;;;;;;;80.83;42.20;;;;;;;4.35;78.25;96382.16;1837643;77;25754;-82
2020/12/31 10:29:04;;;;;;;76.07;42.40;;;;;;;4.36;78.05;96381.64;1833329;77;26300;-82
2020/12/31 10:31:31;;;;;;;76.90;41.73;;;;;;;4.40;78.03;96376.23;1836803;77;25940;-82
2020/12/31 10:33:59;;;;;;;70.15;38.83;;;;;;;4.38;77.93;96383.61;1837101;77;27276;-82
2020/12/31 10:36:26;;;;;;;70.55;38.70;;;;;;;4.38;77.94;96379.61;1837260;77;25763;-82
2020/12/31 10:38:54;;;;;;;71.97;39.95;;;;;;;4.39;77.85;96385.27;1839346;77;26176;-82
2020/12/31 10:41:21;;;;;;;70.42;38.83;;;;;;;4.44;77.93;96375.34;1832299;77;25810;-82
2020/12/31 10:43:48;;;;;;;66.67;38.15;;;;;;;4.52;77.81;96378.66;1830541;77;25693;-82
2020/12/31 10:46:24;;;;;;;67.72;36.50;;;;;;;4.58;77.67;96377.05;1826949;77;27541;-83
2020/12/31 10:48:52;;;;;;;72.53;37.88;;;;;;;4.60;77.37;96373.13;1842444;77;25819;-82
2020/12/31 10:51:20;;;;;;;63.00;36.58;;;;;;;4.43;77.20;96369.16;1837252;77;25863;-82
2020/12/31 10:53:47;;;;;;;68.87;36.85;;;;;;;4.46;77.45;96366.61;1837776;77;26547;-81
2020/12/31 10:56:21;;;;;;;72.70;37.93;;;;;;;4.52;77.42;96365.30;1825939;77;25745;-82
2020/12/31 10:58:48;;;;;;;76.28;40.95;;;;;;;4.56;77.29;96362.55;1821701;77;27490;-81
2020/12/31 11:01:15;;;;;;;70.47;37.95;;;;;;;4.52;77.23;96353.27;1829067;77;25790;-82
2020/12/31 11:03:44;;;;;;;74.17;39.33;;;;;;;4.56;77.38;96360.39;1827350;77;25757;-83
2020/12/31 11:06:25;;;;;;;74.37;38.40;;;;;;;4.66;77.40;96347.47;1828585;77;26068;-83
2020/12/31 11:08:54;;;;;;;75.75;39.88;;;;;;;4.76;77.27;96339.06;1837861;77;25796;-82
2020/12/31 11:11:29;;;;;;;71.35;38.45;;;;;;;4.79;77.00;96342.68;1838868;77;27646;-82
2020/12/31 11:13:56;;;;;;;66.10;38.48;;;;;;;4.83;77.05;96335.92;1821586;77;25754;-82
2020/12/31 11:16:24;;;;;;;73.60;37.95;;;;;;;4.90;76.91;96338.08;1821592;77;25722;-81
2020/12/31 11:18:52;;;;;;;67.82;39.08;;;;;;;4.98;76.90;96331.20;1812465;77;26671;-82
2020/12/31 11:21:21;;;;;;;73.12;39.95;;;;;;;5.03;76.76;96332.26;1814758;77;25683;-82
2020/12/31 11:23:48;;;;;;;74.03;39.30;;;;;;;5.08;76.66;96335.13;1813769;77;27532;-82
2020/12/31 11:26:24;;;;;;;70.17;38.23;;;;;;;5.07;76.52;96330.01;1816048;77;25899;-83
2020/12/31 11:28:52;;;;;;;69.55;35.98;;;;;;;5.00;76.54;96331.31;1816074;77;25685;-82
2020/12/31 11:31:25;;;;;;;70.52;37.15;;;;;;;4.96;76.34;96327.90;1814075;77;25739;-82